Time;durP1;ratioP1;P1;durP2;ratioP2;P2;SDS_P1;SDS_P2;PMS_P1;PMS_P2;Temp;Humidity;BMP_temperature;BMP_pressure;BME280_temperature;BME280_humidity;BME280_pressure;Samples;Min_cycle;Max_cycle;Signal;HPM_P1;HPM_P2
2023/04/09 00:01:05;;;;;;;20.70;14.23;;;;;;;3.08;100.00;93478.38;2582376;22;20008;-83
2023/04/09 00:02:09;;;;;;;19.80;14.68;;;;;;;3.03;100.00;93482.09;2573081;22;20011;-82
2023/04/09 00:03:10;;;;;;;21.65;14.80;;;;;;;2.98;100.00;93469.19;2570305;22;20004;-82
2023/04/09 00:04:13;;;;;;;19.25;14.38;;;;;;;2.95;100.00;93469.16;2594544;22;20014;-82
2023/04/09 00:05:14;;;;;;;23.40;16.13;;;;;;;2.95;100.00;93477.84;2583190;22;20316;-82
2023/04/09 00:06:15;;;;;;;23.13;14.63;;;;;;;2.93;100.00;93463.47;2582228;22;20434;-83
2023/04/09 00:07:16;;;;;;;20.40;14.10;;;;;;;2.94;100.00;93464.97;2582454;22;20010;-82
2023/04/09 00:08:19;;;;;;;19.83;14.55;;;;;;;2.94;100.00;93468.41;2582027;22;20510;-83
2023/04/09 00:09:22;;;;;;;18.90;14.20;;;;;;;2.92;100.00;93469.88;2594449;22;20079;-81
2023/04/09 00:10:23;;;;;;;19.13;13.27;;;;;;;2.88;100.00;93471.72;2582384;22;20008;-82
2023/04/09 00:11:24;;;;;;;21.58;14.20;;;;;;;2.92;100.00;93467.25;2569751;23;20001;-82
2023/04/09 00:12:25;;;;;;;18.95;13.93;;;;;;;2.89;100.00;93462.66;2569780;22;20473;-83
2023/04/09 00:13:26;;;;;;;18.42;14.60;;;;;;;2.85;100.00;93459.22;2569839;23;20012;-82
2023/04/09 00:14:28;;;;;;;17.63;13.52;;;;;;;2.75;100.00;93461.38;2569700;22;20000;-81
2023/04/09 00:15:29;;;;;;;20.00;13.38;;;;;;;2.82;100.00;93460.72;2569343;22;20004;-82
2023/04/09 00:16:30;;;;;;;20.13;13.65;;;;;;;2.79;100.00;93458.78;2569628;22;20008;-82
2023/04/09 00:17:32;;;;;;;21.45;13.30;;;;;;;2.75;100.00;93464.00;2582369;22;20383;-82
2023/04/09 00:18:33;;;;;;;17.08;13.10;;;;;;;2.78;100.00;93457.25;2569913;22;20012;-82
2023/04/09 00:19:34;;;;;;;16.55;12.68;;;;;;;2.73;100.00;93455.69;2569760;23;20000;-82
2023/04/09 00:20:37;;;;;;;16.58;12.88;;;;;;;2.62;100.00;93454.03;2569725;22;20035;-82
2023/04/09 00:21:38;;;;;;;16.80;12.10;;;;;;;2.75;100.00;93456.09;2582535;22;20008;-83
2023/04/09 00:22:39;;;;;;;16.95;12.27;;;;;;;2.84;100.00;93455.81;2569254;22;20005;-81
2023/04/09 00:23:41;;;;;;;19.08;12.95;;;;;;;2.75;100.00;93460.59;2569310;22;20416;-83
2023/04/09 00:24:42;;;;;;;18.80;12.27;;;;;;;2.64;100.00;93457.06;2594581;22;20008;-82
2023/04/09 00:25:44;;;;;;;15.80;11.48;;;;;;;2.56;100.00;93466.00;2569869;22;20009;-82
2023/04/09 00:26:45;;;;;;;18.40;12.10;;;;;;;2.56;100.00;93468.66;2582721;22;20553;-82
2023/04/09 00:27:46;;;;;;;17.95;12.43;;;;;;;2.48;100.00;93459.88;2582247;22;20419;-82
2023/04/09 00:28:47;;;;;;;17.27;12.73;;;;;;;2.39;100.00;93460.13;2581898;22;20000;-82
2023/04/09 00:29:48;;;;;;;17.45;11.95;;;;;;;2.37;100.00;93454.44;2569729;22;20328;-82
2023/04/09 00:30:50;;;;;;;20.08;13.05;;;;;;;2.34;100.00;93465.69;2569423;23;20001;-83
2023/04/09 00:31:51;;;;;;;16.10;11.70;;;;;;;2.29;100.00;93465.25;2582763;22;20024;-82
2023/04/09 00:32:52;;;;;;;17.02;12.23;;;;;;;2.27;100.00;93465.59;2582184;22;20472;-83
2023/04/09 00:33:53;;;;;;;19.52;12.73;;;;;;;2.29;100.00;93468.63;2582050;22;20652;-82
2023/04/09 00:34:55;;;;;;;16.20;11.95;;;;;;;2.34;100.00;93467.59;2581953;23;20012;-82
2023/04/09 00:35:56;;;;;;;15.60;12.18;;;;;;;2.39;100.00;93462.75;2581777;22;20000;-82
2023/04/09 00:36:57;;;;;;;17.08;12.73;;;;;;;2.34;100.00;93467.59;2569823;22;20004;-82
2023/04/09 00:37:58;;;;;;;17.38;12.18;;;;;;;2.30;100.00;93467.53;2569784;22;20005;-82
2023/04/09 00:38:59;;;;;;;16.98;12.23;;;;;;;2.43;100.00;93462.81;2569638;22;20443;-82
2023/04/09 00:40:01;;;;;;;17.13;12.82;;;;;;;2.37;100.00;93461.56;2569749;23;20005;-82
2023/04/09 00:41:02;;;;;;;16.77;12.73;;;;;;;2.31;100.00;93465.63;2569947;22;20031;-83
2023/04/09 00:42:03;;;;;;;17.25;12.38;;;;;;;2.33;100.00;93469.47;2569457;22;20092;-82
2023/04/09 00:43:05;;;;;;;15.65;11.60;;;;;;;2.30;100.00;93464.88;2569103;22;20435;-82
2023/04/09 00:44:06;;;;;;;18.05;12.30;;;;;;;2.26;100.00;93475.38;2582344;22;20031;-82
2023/04/09 00:45:08;;;;;;;17.10;12.50;;;;;;;2.20;100.00;93474.16;2582082;23;20007;-83
2023/04/09 00:46:09;;;;;;;17.15;11.98;;;;;;;2.22;100.00;93471.91;2569903;22;20024;-82
2023/04/09 00:47:10;;;;;;;15.65;11.15;;;;;;;2.17;100.00;93466.19;2581814;22;20011;-82
2023/04/09 00:48:15;;;;;;;17.25;12.20;;;;;;;2.25;100.00;93467.81;2581530;22;20007;-82
2023/04/09 00:49:16;;;;;;;16.58;12.27;;;;;;;2.25;100.00;93470.47;2571268;22;20015;-82
2023/04/09 00:50:17;;;;;;;16.85;12.38;;;;;;;2.22;100.00;93471.16;2582101;22;20010;-82
2023/04/09 00:51:18;;;;;;;16.13;12.73;;;;;;;2.26;100.00;93477.25;2594726;22;20061;-82
2023/04/09 00:52:20;;;;;;;17.77;12.93;;;;;;;2.29;100.00;93476.56;2569539;23;20011;-82
2023/04/09 00:53:21;;;;;;;16.92;12.65;;;;;;;2.34;100.00;93478.13;2569423;22;20015;-82
2023/04/09 00:54:22;;;;;;;16.67;11.77;;;;;;;2.42;100.00;93463.94;2582075;22;20424;-82
2023/04/09 00:55:24;;;;;;;15.95;11.82;;;;;;;2.45;100.00;93469.25;2582070;22;20008;-82
2023/04/09 00:56:27;;;;;;;17.23;12.10;;;;;;;2.38;100.00;93476.31;2582169;22;20008;-82
2023/04/09 00:57:30;;;;;;;17.10;12.23;;;;;;;2.33;100.00;93473.94;2595086;22;20018;-82
2023/04/09 00:58:32;;;;;;;16.35;12.02;;;;;;;2.36;100.00;93460.81;2582267;22;20697;-83
2023/04/09 00:59:36;;;;;;;16.63;12.52;;;;;;;2.39;100.00;93468.03;2569791;22;20036;-83
2023/04/09 01:00:37;;;;;;;18.17;13.00;;;;;;;2.45;100.00;93460.56;2582329;22;20007;-83
2023/04/09 01:01:38;;;;;;;16.45;12.65;;;;;;;2.46;100.00;93462.88;2594405;22;20003;-83
2023/04/09 01:02:40;;;;;;;17.48;12.63;;;;;;;2.43;100.00;93460.94;2594649;22;20434;-82
2023/04/09 01:03:41;;;;;;;17.73;12.43;;;;;;;2.41;100.00;93459.75;2594499;22;20377;-82
2023/04/09 01:04:45;;;;;;;16.38;12.68;;;;;;;2.44;100.00;93464.31;2582121;22;20008;-82
2023/04/09 01:05:59;;;;;;;19.98;13.35;;;;;;;2.47;100.00;93464.38;2570202;22;20012;-82
2023/04/09 01:07:02;;;;;;;17.92;12.77;;;;;;;2.48;100.00;93463.25;2574718;22;20128;-82
2023/04/09 01:08:25;;;;;;;19.05;13.55;;;;;;;2.48;100.00;93462.50;2570860;22;20012;-82
2023/04/09 01:09:32;;;;;;;22.42;14.00;;;;;;;2.56;100.00;93461.50;2591354;22;20434;-82
2023/04/09 01:10:45;;;;;;;19.58;13.40;;;;;;;2.53;100.00;93455.03;2583455;22;20019;-82
2023/04/09 01:12:10;;;;;;;17.27;12.85;;;;;;;2.50;100.00;93457.63;2594720;22;20382;-83
2023/04/09 01:13:14;;;;;;;18.73;13.27;;;;;;;2.55;100.00;93461.81;2586824;22;20049;-82
2023/04/09 01:14:24;;;;;;;20.20;14.10;;;;;;;2.53;100.00;93462.19;2583311;22;20411;-82
2023/04/09 01:15:28;;;;;;;17.52;13.30;;;;;;;2.50;100.00;93458.41;2583653;22;20004;-82
2023/04/09 01:16:33;;;;;;;19.63;14.07;;;;;;;2.46;100.00;93464.75;2582098;22;20008;-82
2023/04/09 01:17:36;;;;;;;20.83;14.23;;;;;;;2.46;100.00;93454.19;2582381;22;20061;-82
2023/04/09 01:18:55;;;;;;;22.52;16.48;;;;;;;2.59;100.00;93462.63;2570484;22;20004;-82
2023/04/09 01:20:07;;;;;;;21.95;15.60;;;;;;;2.64;100.00;93454.44;2598387;22;20006;-83
2023/04/09 01:21:13;;;;;;;24.85;17.67;;;;;;;2.69;100.00;93456.75;2584294;22;20315;-83
2023/04/09 01:22:45;;;;;;;27.13;18.33;;;;;;;2.70;100.00;93453.00;2570913;22;20035;-82
2023/04/09 01:24:10;;;;;;;25.58;17.98;;;;;;;2.66;100.00;93460.88;2581874;22;20347;-82
2023/04/09 01:25:44;;;;;;;28.40;19.00;;;;;;;2.61;100.00;93447.22;2592134;22;20468;-82
2023/04/09 01:27:05;;;;;;;26.98;17.50;;;;;;;2.71;100.00;93454.53;2582811;22;20030;-82
2023/04/09 01:28:18;;;;;;;24.83;18.20;;;;;;;2.62;100.00;93452.13;2577082;22;20011;-82
2023/04/09 01:29:22;;;;;;;27.20;18.83;;;;;;;2.46;100.00;93460.22;2584197;22;20012;-82
2023/04/09 01:30:27;;;;;;;26.77;18.08;;;;;;;2.44;100.00;93456.41;2583426;22;20417;-83
2023/04/09 01:31:33;;;;;;;28.48;18.38;;;;;;;2.39;100.00;93459.34;2594362;22;20019;-82
2023/04/09 01:32:37;;;;;;;25.83;18.00;;;;;;;2.27;100.00;93453.16;2595605;22;20016;-82
2023/04/09 01:33:41;;;;;;;26.30;18.75;;;;;;;2.25;100.00;93463.31;2581875;22;21019;-82
2023/04/09 01:34:48;;;;;;;27.50;19.15;;;;;;;2.21;100.00;93454.59;2582784;22;20012;-82
2023/04/09 01:35:50;;;;;;;26.85;17.90;;;;;;;2.15;100.00;93452.59;2582925;22;20082;-82
2023/04/09 01:36:56;;;;;;;28.77;17.95;;;;;;;2.16;100.00;93452.25;2582614;22;20003;-83
2023/04/09 01:37:57;;;;;;;26.83;17.83;;;;;;;2.09;100.00;93456.66;2582850;22;20026;-82
2023/04/09 01:39:02;;;;;;;22.90;17.08;;;;;;;2.00;100.00;93455.00;2582299;22;20055;-81
2023/04/09 01:40:03;;;;;;;22.25;16.42;;;;;;;1.91;100.00;93465.03;2582111;22;20435;-83
2023/04/09 01:41:06;;;;;;;23.48;16.67;;;;;;;1.87;100.00;93461.56;2569418;22;20064;-83
2023/04/09 01:42:11;;;;;;;22.90;16.33;;;;;;;1.81;100.00;93464.88;2582781;22;20058;-82
2023/04/09 01:43:13;;;;;;;25.40;16.58;;;;;;;1.73;100.00;93462.09;2594258;22;20061;-83
2023/04/09 01:44:16;;;;;;;22.98;16.38;;;;;;;1.61;100.00;93461.50;2582663;22;20003;-82
2023/04/09 01:45:20;;;;;;;23.60;16.67;;;;;;;1.62;100.00;93460.38;2582237;22;20004;-83
2023/04/09 01:46:24;;;;;;;26.05;17.10;;;;;;;1.69;100.00;93463.16;2569806;22;20005;-82
2023/04/09 01:47:27;;;;;;;23.15;15.88;;;;;;;1.61;100.00;93461.50;2582776;22;20015;-83
2023/04/09 01:48:32;;;;;;;21.35;15.70;;;;;;;1.53;100.00;93460.59;2594384;22;20008;-83
2023/04/09 01:49:35;;;;;;;20.92;14.80;;;;;;;1.46;100.00;93456.00;2571139;22;20016;-83
2023/04/09 01:50:37;;;;;;;22.92;14.80;;;;;;;1.46;100.00;93452.59;2582669;22;20031;-82
2023/04/09 01:51:38;;;;;;;20.80;13.95;;;;;;;1.44;100.00;93465.34;2582313;22;20004;-82
2023/04/09 01:52:40;;;;;;;21.65;14.32;;;;;;;1.34;100.00;93465.91;2581017;22;20011;-83
2023/04/09 01:53:41;;;;;;;21.67;14.23;;;;;;;1.26;100.00;93455.25;2594489;22;20008;-83
2023/04/09 01:54:42;;;;;;;19.05;13.48;;;;;;;1.24;100.00;93454.06;2594212;22;20003;-83
2023/04/09 01:55:44;;;;;;;20.67;14.50;;;;;;;1.14;100.00;93460.69;2582025;22;20012;-83
2023/04/09 01:56:47;;;;;;;19.80;14.00;;;;;;;1.16;100.00;93460.31;2581976;22;20007;-82
2023/04/09 01:57:48;;;;;;;19.48;12.38;;;;;;;1.16;100.00;93455.06;2570130;22;20127;-82
2023/04/09 01:58:51;;;;;;;18.77;12.70;;;;;;;1.14;100.00;93463.31;2569018;22;20051;-82
2023/04/09 01:59:53;;;;;;;19.95;13.07;;;;;;;1.10;100.00;93459.84;2570019;22;20343;-82
2023/04/09 02:01:04;;;;;;;18.30;12.88;;;;;;;1.12;100.00;93467.38;2582583;22;20087;-83
2023/04/09 02:02:11;;;;;;;21.38;13.45;;;;;;;1.03;100.00;93469.47;2594416;22;20109;-82
2023/04/09 02:03:22;;;;;;;18.48;13.32;;;;;;;0.98;100.00;93457.34;2595481;22;20014;-83
2023/04/09 02:04:36;;;;;;;18.20;12.35;;;;;;;0.91;100.00;93455.31;2594229;22;20059;-83
2023/04/09 02:05:43;;;;;;;14.65;11.30;;;;;;;0.89;100.00;93465.44;2583954;22;20012;-83
2023/04/09 02:07:18;;;;;;;19.15;12.73;;;;;;;0.90;100.00;93463.56;2571957;22;20411;-83
2023/04/09 02:08:23;;;;;;;19.45;12.30;;;;;;;0.81;100.00;93461.13;2596045;22;20010;-84
2023/04/09 02:09:30;;;;;;;19.02;12.27;;;;;;;0.82;100.00;93464.53;2582377;22;20012;-82
2023/04/09 02:10:54;;;;;;;18.00;12.30;;;;;;;0.77;100.00;93462.94;2583183;22;20008;-83
2023/04/09 02:12:03;;;;;;;17.38;12.13;;;;;;;0.75;100.00;93458.03;2590820;22;20571;-83
2023/04/09 02:13:16;;;;;;;18.25;12.18;;;;;;;0.75;100.00;93457.25;2583138;22;20008;-83
2023/04/09 02:14:27;;;;;;;16.83;12.45;;;;;;;0.71;100.00;93459.06;2594373;22;20000;-82
2023/04/09 02:15:40;;;;;;;14.95;11.38;;;;;;;0.66;100.00;93456.69;2585835;22;20004;-83
2023/04/09 02:16:51;;;;;;;18.58;11.95;;;;;;;0.62;100.00;93456.63;2607446;22;20091;-83
2023/04/09 02:17:56;;;;;;;18.13;12.32;;;;;;;0.62;100.00;93454.00;2594477;22;20007;-82
2023/04/09 02:32:12;;;;;;;18.00;14.00;;;;;;;0.18;100.00;93456.81;5199448;22;20460;-77
2023/04/09 02:33:20;;;;;;;19.45;13.77;;;;;;;0.01;100.00;93446.66;2556522;23;20021;-77
2023/04/09 02:35:23;;;;;;;18.13;12.57;;;;;;;0.00;100.00;93447.75;2543622;23;20469;-77
2023/04/09 02:37:00;;;;;;;19.02;12.30;;;;;;;0.07;100.00;93449.75;2570078;23;20008;-76
2023/04/09 02:38:18;;;;;;;17.73;12.90;;;;;;;0.10;100.00;93446.47;2579440;23;20000;-78
2023/04/09 02:39:21;;;;;;;18.70;12.88;;;;;;;0.05;100.00;93452.00;2571319;23;20492;-76
2023/04/09 02:40:30;;;;;;;21.75;14.13;;;;;;;0.01;100.00;93448.50;2559989;23;20315;-76
2023/04/09 02:41:41;;;;;;;18.10;13.48;;;;;;;0.01;100.00;93445.88;2573278;23;20028;-76
2023/04/09 02:42:52;;;;;;;19.65;13.23;;;;;;;-0.16;100.00;93453.00;2573510;23;20092;-76
2023/04/09 02:44:01;;;;;;;19.98;13.90;;;;;;;-0.15;100.00;93453.75;2559901;23;20425;-77
2023/04/09 02:45:08;;;;;;;16.70;12.73;;;;;;;-0.09;100.00;93453.19;2560710;23;20066;-76
2023/04/09 02:46:10;;;;;;;19.35;13.10;;;;;;;-0.10;100.00;93456.88;2560952;23;20636;-77
2023/04/09 02:47:18;;;;;;;19.40;13.35;;;;;;;-0.20;100.00;93449.53;2557672;23;20005;-76
2023/04/09 02:48:36;;;;;;;16.13;12.02;;;;;;;-0.22;100.00;93454.38;2564696;23;20008;-77
2023/04/09 02:49:42;;;;;;;18.83;13.00;;;;;;;-0.19;100.00;93452.91;2561063;23;20099;-77
2023/04/09 02:50:49;;;;;;;16.83;13.02;;;;;;;-0.28;100.00;93459.09;2549460;23;20019;-76
2023/04/09 02:51:52;;;;;;;19.38;12.73;;;;;;;-0.35;100.00;93456.31;2547837;23;20016;-76
2023/04/09 02:52:56;;;;;;;18.85;13.15;;;;;;;-0.35;100.00;93458.16;2547572;23;20009;-75
2023/04/09 02:53:58;;;;;;;17.45;12.85;;;;;;;-0.30;100.00;93457.91;2558807;23;20028;-75
2023/04/09 02:55:05;;;;;;;17.52;12.73;;;;;;;-0.36;100.00;93454.00;2571453;23;20081;-77
2023/04/09 02:56:15;;;;;;;19.40;13.27;;;;;;;-0.35;100.00;93458.94;2560337;23;20009;-78
2023/04/09 02:57:23;;;;;;;17.80;12.75;;;;;;;-0.40;100.00;93464.41;2550933;23;20847;-77
2023/04/09 02:58:52;;;;;;;16.00;12.35;;;;;;;-0.48;100.00;93459.31;2562230;23;20009;-77
2023/04/09 03:00:29;;;;;;;16.52;12.15;;;;;;;-0.48;100.00;93456.69;2577697;23;20074;-78
2023/04/09 03:01:56;;;;;;;15.95;12.13;;;;;;;-0.61;100.00;93458.66;2581252;23;20026;-76
2023/04/09 03:03:15;;;;;;;17.25;11.70;;;;;;;-0.57;100.00;93455.00;2565364;23;20051;-78
2023/04/09 03:07:16;;;;;;;17.83;11.15;;;;;;;-0.65;100.00;93445.44;2510283;23;20564;-77
2023/04/09 03:08:20;;;;;;;17.98;12.35;;;;;;;-0.67;100.00;93449.47;2558075;23;20393;-76
2023/04/09 03:09:29;;;;;;;16.23;11.73;;;;;;;-0.65;100.00;93452.53;2545770;23;20067;-78
2023/04/09 03:10:33;;;;;;;16.05;12.30;;;;;;;-0.64;100.00;93451.44;2535375;23;20013;-77
2023/04/09 03:11:56;;;;;;;19.52;12.27;;;;;;;-0.68;100.00;93456.59;2533447;23;20013;-77
2023/04/09 03:13:05;;;;;;;15.98;12.13;;;;;;;-0.57;100.00;93446.34;2563522;23;20012;-77
2023/04/09 03:14:10;;;;;;;16.55;12.40;;;;;;;-0.70;100.00;93450.94;2559630;23;20389;-76
2023/04/09 03:15:16;;;;;;;17.35;12.05;;;;;;;-0.63;100.00;93437.97;2560656;23;20032;-76
2023/04/09 03:16:18;;;;;;;17.40;12.65;;;;;;;-0.65;100.00;93453.31;2559212;23;20508;-77
2023/04/09 03:17:19;;;;;;;21.17;13.98;;;;;;;-0.57;100.00;93446.34;2559377;23;20369;-76
2023/04/09 03:18:20;;;;;;;17.50;13.27;;;;;;;-0.56;100.00;93445.28;2557966;23;20017;-76
2023/04/09 03:19:30;;;;;;;18.17;13.13;;;;;;;-0.68;100.00;93448.72;2571203;23;20746;-77
2023/04/09 03:20:38;;;;;;;17.55;12.65;;;;;;;-0.61;100.00;93448.16;2564679;23;20080;-76
2023/04/09 03:21:42;;;;;;;18.77;13.00;;;;;;;-0.71;100.00;93444.13;2573292;23;20001;-77
2023/04/09 03:22:50;;;;;;;18.50;13.18;;;;;;;-0.74;100.00;93454.56;2560539;23;20083;-76
2023/04/09 03:23:54;;;;;;;15.98;12.50;;;;;;;-0.66;100.00;93445.75;2570740;23;20009;-78
2023/04/09 03:24:55;;;;;;;18.25;13.70;;;;;;;-0.77;100.00;93446.25;2559540;23;20533;-75
2023/04/09 03:26:01;;;;;;;18.25;13.73;;;;;;;-0.81;100.00;93450.63;2583934;23;20012;-77
2023/04/09 03:27:02;;;;;;;18.05;13.27;;;;;;;-0.85;100.00;93449.03;2584314;23;20004;-78
2023/04/09 03:28:12;;;;;;;19.63;13.43;;;;;;;-0.88;100.00;93452.31;2560684;23;20004;-79
2023/04/09 03:29:15;;;;;;;18.45;13.95;;;;;;;-0.89;100.00;93442.91;2573193;23;20664;-76
2023/04/09 03:30:19;;;;;;;17.58;12.70;;;;;;;-0.82;100.00;93443.88;2559164;23;20112;-76
2023/04/09 03:31:20;;;;;;;19.70;14.13;;;;;;;-0.96;100.00;93448.00;2558155;23;20091;-76
2023/04/09 03:32:21;;;;;;;18.55;13.25;;;;;;;-0.99;100.00;93448.66;2569479;23;20005;-77
2023/04/09 03:33:29;;;;;;;18.95;13.10;;;;;;;-0.96;100.00;93448.00;2559328;23;20490;-76
2023/04/09 03:34:35;;;;;;;19.10;13.80;;;;;;;-0.98;100.00;93447.53;2562100;23;20021;-77
2023/04/09 03:35:57;;;;;;;21.90;14.25;;;;;;;-1.05;100.00;93454.13;2558713;23;20009;-77
2023/04/09 03:37:16;;;;;;;19.55;13.02;;;;;;;-1.05;100.00;93454.13;2554541;23;20038;-77
2023/04/09 03:38:23;;;;;;;18.75;13.18;;;;;;;-1.03;100.00;93449.31;2581638;23;20058;-76
2023/04/09 03:39:30;;;;;;;21.27;14.65;;;;;;;-0.97;100.00;93456.94;2570256;23;20008;-76
2023/04/09 03:40:46;;;;;;;;;;;;;;;-1.03;100.00;93449.31;2563078;23;20438;-77
2023/04/09 03:41:50;;;;;;;18.23;12.77;;;;;;;-1.10;100.00;93451.75;2560507;23;19951;-76
2023/04/09 03:42:51;;;;;;;18.23;12.25;;;;;;;-1.15;100.00;93454.59;2570001;23;20008;-76
2023/04/09 03:43:55;;;;;;;17.83;13.77;;;;;;;-1.18;100.00;93452.66;2569129;23;20516;-77
2023/04/09 03:44:56;;;;;;;19.83;14.57;;;;;;;-1.18;100.00;93460.53;2568411;23;20008;-76
2023/04/09 03:45:59;;;;;;;21.10;14.95;;;;;;;-1.13;100.00;93459.53;2568577;23;20016;-77
2023/04/09 03:47:07;;;;;;;21.17;14.90;;;;;;;-1.11;100.00;93463.31;2569076;23;20031;-77
2023/04/09 03:48:11;;;;;;;20.95;14.50;;;;;;;-1.10;100.00;93459.63;2581403;23;20008;-77
2023/04/09 03:49:12;;;;;;;20.92;14.95;;;;;;;-1.21;100.00;93458.56;2568221;23;20091;-77
2023/04/09 03:50:20;;;;;;;20.50;14.93;;;;;;;-1.21;100.00;93463.03;2568599;23;19997;-76
2023/04/09 03:51:23;;;;;;;20.52;15.00;;;;;;;-1.24;100.00;93461.84;2580876;23;20004;-76
2023/04/09 03:52:24;;;;;;;21.13;15.57;;;;;;;-1.22;100.00;93456.28;2580763;23;20008;-76
2023/04/09 03:53:25;;;;;;;19.70;14.65;;;;;;;-1.17;100.00;93458.66;2581288;23;20018;-77
2023/04/09 03:54:32;;;;;;;21.13;14.82;;;;;;;-1.19;100.00;93461.59;2568409;23;20032;-75
2023/04/09 03:55:33;;;;;;;21.83;15.23;;;;;;;-1.21;100.00;93463.03;2558696;23;20016;-76
2023/04/09 03:56:35;;;;;;;20.92;14.27;;;;;;;-1.19;100.00;93460.84;2580440;23;20104;-76
2023/04/09 03:57:44;;;;;;;18.88;14.27;;;;;;;-1.21;100.00;93460.41;2568224;23;20004;-77
2023/04/09 03:59:10;;;;;;;19.58;14.23;;;;;;;-1.20;100.00;93461.94;2559009;23;20012;-77
2023/04/09 04:00:31;;;;;;;19.95;14.23;;;;;;;-1.17;100.00;93456.03;2569132;23;20035;-78
2023/04/09 04:01:37;;;;;;;19.30;14.13;;;;;;;-1.18;100.00;93465.00;2568496;23;20009;-77
2023/04/09 04:02:39;;;;;;;21.45;15.20;;;;;;;-1.16;100.00;93457.56;2569088;23;20420;-77
2023/04/09 04:03:41;;;;;;;22.02;15.68;;;;;;;-0.96;100.00;93450.63;2580518;23;20518;-79
2023/04/09 04:04:42;;;;;;;21.40;16.10;;;;;;;-1.07;100.00;93452.94;2581050;23;20425;-78
2023/04/09 04:05:44;;;;;;;20.33;15.18;;;;;;;-1.12;100.00;93456.56;2581870;22;20007;-76
2023/04/09 04:06:45;;;;;;;22.10;15.10;;;;;;;-1.29;100.00;93451.59;2582060;22;20613;-78
2023/04/09 04:07:46;;;;;;;18.75;14.40;;;;;;;-1.21;100.00;93457.78;2581221;23;20054;-77
2023/04/09 04:08:47;;;;;;;19.98;14.88;;;;;;;-1.30;100.00;93450.81;2568064;23;20051;-78
2023/04/09 04:09:50;;;;;;;23.23;15.27;;;;;;;-1.30;100.00;93450.06;2555642;23;20009;-76
2023/04/09 04:10:51;;;;;;;22.02;14.20;;;;;;;-1.29;100.00;93454.97;2555693;23;20013;-76
2023/04/09 04:11:54;;;;;;;19.63;14.98;;;;;;;-1.20;100.00;93452.22;2568738;23;20445;-76
2023/04/09 04:12:55;;;;;;;20.20;14.68;;;;;;;-1.24;100.00;93451.34;2581017;23;20010;-76
2023/04/09 04:13:56;;;;;;;19.20;14.18;;;;;;;-1.31;100.00;93449.31;2580775;23;20011;-79
2023/04/09 04:23:17;;;;;;;23.15;13.07;;;;;;;-1.44;100.00;93455.66;2482730;23;20015;-78
2023/04/09 04:26:56;;;;;;;17.15;12.70;;;;;;;-1.43;100.00;93453.81;2515470;23;20025;-78
2023/04/09 04:28:55;;;;;;;19.38;13.68;;;;;;;-1.41;100.00;93455.00;2519219;23;20015;-77
2023/04/09 04:31:00;;;;;;;21.75;13.52;;;;;;;-1.57;100.00;93452.31;2518692;23;20549;-78
2023/04/09 04:40:38;;;;;;;21.90;13.98;;;;;;;-1.57;100.00;93448.94;2530584;23;20443;-78
2023/04/09 04:42:08;;;;;;;20.13;13.02;;;;;;;-1.54;100.00;93453.50;2516184;23;20025;-79
2023/04/09 04:43:09;;;;;;;21.75;14.02;;;;;;;-1.62;100.00;93451.78;2544627;23;20529;-76
2023/04/09 04:44:12;;;;;;;23.33;14.75;;;;;;;-1.63;100.00;93451.00;2579446;23;20044;-77
2023/04/09 04:45:20;;;;;;;24.10;14.85;;;;;;;-1.59;100.00;93451.88;2580467;23;20004;-77
2023/04/09 04:46:22;;;;;;;23.88;15.45;;;;;;;-1.38;100.00;93446.47;2581008;23;20004;-78
2023/04/09 04:47:27;;;;;;;24.10;16.13;;;;;;;-1.41;100.00;93449.00;2580007;23;20027;-76
2023/04/09 04:48:29;;;;;;;21.83;14.50;;;;;;;-1.47;100.00;93450.31;2581705;22;19992;-77
2023/04/09 04:49:35;;;;;;;21.95;15.10;;;;;;;-1.58;100.00;93450.78;2568292;23;20123;-77
2023/04/09 05:00:53;;;;;;;;;;;;;;;;;;;;;
2023/04/09 05:05:32;;;;;;;21.05;13.15;;;;;;;-1.54;100.00;93454.28;2529401;23;20053;-78
2023/04/09 05:06:48;;;;;;;21.45;12.98;;;;;;;-1.58;100.00;93455.25;2506059;23;20123;-76
2023/04/09 05:07:50;;;;;;;20.42;13.27;;;;;;;-1.45;100.00;93443.63;2526572;23;20014;-75
2023/04/09 05:14:09;;;;;;;19.55;12.50;;;;;;;-1.59;100.00;93457.09;2460692;24;20020;-76
2023/04/09 05:16:17;;;;;;;19.50;12.30;;;;;;;-1.46;100.00;93452.59;2460614;23;20582;-77
2023/04/09 05:22:13;;;;;;;;;;;;;;;;;;;;;
2023/04/09 05:26:41;;;;;;;19.00;12.35;;;;;;;-1.40;100.00;93453.91;2459184;24;20043;-77
2023/04/09 05:27:54;;;;;;;18.65;12.48;;;;;;;-1.38;100.00;93454.34;2453252;24;20019;-77
2023/04/09 05:29:02;;;;;;;18.23;12.98;;;;;;;-1.29;100.00;93459.44;2463618;23;20021;-78
2023/04/09 05:30:12;;;;;;;20.25;13.43;;;;;;;-1.32;100.00;93453.03;2500195;23;20013;-77
2023/04/09 05:34:02;;;;;;;19.15;12.63;;;;;;;-1.42;100.00;93466.56;2482962;23;20023;-78
2023/04/09 05:37:53;;;;;;;20.23;12.57;;;;;;;-1.32;100.00;93460.09;2437241;24;20014;-77
2023/04/09 05:42:01;;;;;;;21.42;13.43;;;;;;;-1.29;100.00;93454.19;2372773;24;20020;-78
2023/04/09 05:43:10;;;;;;;20.48;13.82;;;;;;;-1.24;100.00;93456.59;2385664;24;20021;-77
2023/04/09 05:44:47;;;;;;;19.83;13.93;;;;;;;-1.21;100.00;93453.31;2417853;24;20028;-76
2023/04/09 05:46:27;;;;;;;22.27;12.82;;;;;;;-1.15;100.00;93457.22;2488446;22;20008;-77
2023/04/09 05:47:42;;;;;;;18.80;14.13;;;;;;;-1.20;100.00;93449.59;2580798;23;20000;-78
2023/04/09 05:48:49;;;;;;;21.90;14.27;;;;;;;-1.14;100.00;93452.72;2568443;23;20473;-78
2023/04/09 05:50:37;;;;;;;24.25;15.48;;;;;;;-1.18;100.00;93446.66;2582160;22;20008;-80
2023/04/09 05:51:42;;;;;;;21.10;13.98;;;;;;;-1.15;100.00;93456.44;2557471;22;20016;-77
2023/04/09 05:52:43;;;;;;;23.95;16.30;;;;;;;-1.08;100.00;93452.16;2580551;23;20011;-77
2023/04/09 05:53:45;;;;;;;22.55;16.02;;;;;;;-1.02;100.00;93445.59;2580438;22;20004;-77
2023/04/09 05:54:47;;;;;;;28.08;18.00;;;;;;;-0.98;100.00;93440.44;2592274;22;20023;-76
2023/04/09 05:55:50;;;;;;;26.65;17.33;;;;;;;-0.96;100.00;93443.50;2593598;22;20004;-76
2023/04/09 05:56:52;;;;;;;24.65;16.88;;;;;;;-0.94;100.00;93435.28;2594179;22;20082;-75
2023/04/09 05:57:57;;;;;;;24.38;16.48;;;;;;;-0.94;100.00;93443.91;2594314;22;20030;-79
2023/04/09 05:59:01;;;;;;;24.95;16.13;;;;;;;-0.92;100.00;93439.13;2580032;23;20612;-79
2023/04/09 06:00:07;;;;;;;25.60;17.15;;;;;;;-0.85;100.00;93433.28;2581307;22;20492;-78
2023/04/09 06:01:10;;;;;;;27.45;18.48;;;;;;;-0.86;100.00;93448.25;2580391;23;20000;-77
2023/04/09 06:02:12;;;;;;;24.85;16.95;;;;;;;-0.93;100.00;93442.06;2581163;22;20086;-78
2023/04/09 06:03:16;;;;;;;24.50;16.13;;;;;;;-0.81;100.00;93440.13;2567857;23;20008;-77
2023/04/09 06:04:19;;;;;;;25.73;16.88;;;;;;;-0.75;100.00;93443.28;2556508;23;20060;-78
2023/04/09 06:05:22;;;;;;;28.48;18.90;;;;;;;-0.69;100.00;93441.19;2580494;23;20008;-77
2023/04/09 06:06:25;;;;;;;26.88;17.90;;;;;;;-0.64;100.00;93448.81;2568003;23;20402;-78
2023/04/09 06:07:26;;;;;;;28.38;19.60;;;;;;;-0.59;100.00;93445.94;2568612;23;20004;-77
2023/04/09 06:08:27;;;;;;;28.73;17.98;;;;;;;-0.57;100.00;93446.34;2567632;23;20008;-77
2023/04/09 06:09:35;;;;;;;28.35;18.30;;;;;;;-0.56;100.00;93440.78;2568845;23;20000;-77
2023/04/09 06:10:36;;;;;;;26.85;18.17;;;;;;;-0.53;100.00;93455.88;2569127;23;20429;-76
2023/04/09 06:11:56;;;;;;;25.33;16.85;;;;;;;-0.48;100.00;93454.06;2567534;23;20004;-77
2023/04/09 06:13:17;;;;;;;27.95;18.23;;;;;;;-0.43;100.00;93453.84;2560099;23;20001;-78
2023/04/09 06:15:13;;;;;;;24.60;16.42;;;;;;;-0.35;100.00;93455.53;2571638;23;20012;-78
2023/04/09 06:16:28;;;;;;;28.85;17.02;;;;;;;-0.21;100.00;93455.88;2546323;23;20006;-79
2023/04/09 06:17:45;;;;;;;27.40;16.80;;;;;;;-0.15;100.00;93469.53;2545880;23;20094;-79
2023/04/09 06:18:56;;;;;;;24.92;16.88;;;;;;;-0.08;100.00;93459.94;2568580;23;20046;-77
2023/04/09 06:20:38;;;;;;;24.77;16.38;;;;;;;0.10;100.00;93468.25;2563163;23;20580;-79
2023/04/09 06:22:02;;;;;;;30.23;18.45;;;;;;;0.17;100.00;93465.75;2547246;23;20005;-78
2023/04/09 06:23:48;;;;;;;31.13;18.58;;;;;;;0.29;100.00;93477.28;2572207;23;20090;-77